Time;durP1;ratioP1;P1;durP2;ratioP2;P2;SDS_P1;SDS_P2;PMS_P1;PMS_P2;Temp;Humidity;BMP_temperature;BMP_pressure;BME280_temperature;BME280_humidity;BME280_pressure;Samples;Min_cycle;Max_cycle;Signal;HPM_P1;HPM_P2
2023/09/06 00:00:48;;;;;;;16.27;12.98;;;;;;;16.86;55.37;102082.28;5019751;28;20052;-65
2023/09/06 00:03:14;;;;;;;18.52;13.32;;;;;;;16.75;55.64;102083.63;5022565;28;20047;-65
2023/09/06 00:05:43;;;;;;;19.60;13.05;;;;;;;16.72;55.66;102081.13;5017358;28;20070;-66
2023/09/06 00:08:13;;;;;;;16.20;13.15;;;;;;;16.71;55.94;102082.06;5015073;28;20033;-66
2023/09/06 00:10:39;;;;;;;17.05;13.10;;;;;;;16.66;55.49;102080.56;5001875;28;20044;-65
2023/09/06 00:13:07;;;;;;;17.33;13.38;;;;;;;16.59;55.87;102085.25;5027137;28;21382;-65
2023/09/06 00:15:33;;;;;;;16.83;13.43;;;;;;;16.69;55.70;102070.72;5041309;28;20028;-65
2023/09/06 00:17:58;;;;;;;17.13;11.63;;;;;;;16.70;55.34;102075.06;5022227;28;20036;-66
2023/09/06 00:20:24;;;;;;;15.43;10.50;;;;;;;16.68;55.50;102069.00;5041319;28;20032;-64
2023/09/06 00:22:57;;;;;;;14.75;11.23;;;;;;;16.67;55.27;102072.56;5020110;28;20080;-65
2023/09/06 00:25:22;;;;;;;17.25;12.90;;;;;;;16.63;55.70;102063.06;5042787;28;20058;-64
2023/09/06 00:27:50;;;;;;;18.38;13.57;;;;;;;16.58;56.29;102065.09;5029654;28;21000;-65
2023/09/06 00:30:18;;;;;;;22.23;15.85;;;;;;;16.56;56.69;102065.16;5016865;28;20029;-65
2023/09/06 00:32:47;;;;;;;17.83;14.30;;;;;;;16.54;56.56;102060.88;5037394;28;20048;-65
2023/09/06 00:35:16;;;;;;;14.48;10.82;;;;;;;16.56;56.50;102059.03;5032049;28;20119;-67
2023/09/06 00:37:42;;;;;;;17.38;13.23;;;;;;;16.50;56.36;102062.78;5041728;28;20136;-66
2023/09/06 00:40:21;;;;;;;20.40;15.75;;;;;;;16.49;56.44;102060.22;5040823;28;20474;-67
2023/09/06 00:42:52;;;;;;;22.20;17.50;;;;;;;16.40;56.99;102061.50;5037423;28;20135;-67
2023/09/06 00:45:21;;;;;;;20.13;14.40;;;;;;;16.39;56.80;102052.72;5047390;28;20448;-68
2023/09/06 00:47:46;;;;;;;18.98;14.75;;;;;;;16.38;57.38;102058.09;5044745;28;20052;-68
2023/09/06 00:50:14;;;;;;;20.55;15.20;;;;;;;16.42;57.30;102065.78;5040700;28;20035;-68
2023/09/06 00:52:41;;;;;;;18.10;13.80;;;;;;;16.41;57.10;102058.78;5053808;28;20118;-69
2023/09/06 00:55:08;;;;;;;20.75;15.02;;;;;;;16.40;57.12;102059.72;5043065;28;20040;-68
2023/09/06 00:57:35;;;;;;;22.13;16.05;;;;;;;16.37;57.17;102053.72;5037825;28;20040;-69
2023/09/06 01:00:05;;;;;;;20.20;13.02;;;;;;;16.35;56.39;102056.44;5042576;28;20115;-66
2023/09/06 01:02:30;;;;;;;20.00;15.35;;;;;;;16.31;57.39;102059.28;5038560;28;20901;-66
2023/09/06 01:04:56;;;;;;;22.23;14.32;;;;;;;16.24;57.06;102058.69;5037907;28;20086;-63
2023/09/06 01:07:25;;;;;;;19.30;13.95;;;;;;;16.22;57.06;102063.22;5040959;28;20507;-66
2023/09/06 01:09:51;;;;;;;18.42;13.18;;;;;;;16.22;56.99;102060.56;5021180;28;20802;-63
2023/09/06 01:12:17;;;;;;;19.38;12.45;;;;;;;16.23;56.77;102059.63;5029814;28;20029;-64
2023/09/06 01:14:42;;;;;;;16.20;11.55;;;;;;;16.22;56.59;102065.84;5054780;28;20049;-64
2023/09/06 01:17:10;;;;;;;15.95;12.30;;;;;;;16.16;56.54;102066.13;5055479;28;20083;-64
2023/09/06 01:19:43;;;;;;;16.52;12.32;;;;;;;16.16;56.54;102060.84;5018728;28;20223;-64
2023/09/06 01:22:20;;;;;;;17.60;13.75;;;;;;;16.08;56.58;102057.69;5021797;28;20570;-63
2023/09/06 01:24:47;;;;;;;20.55;13.05;;;;;;;16.10;56.84;102063.75;5026725;28;20047;-67
2023/09/06 01:27:13;;;;;;;21.55;14.82;;;;;;;16.08;57.58;102055.03;5038418;28;20140;-65
2023/09/06 01:29:40;;;;;;;19.48;14.35;;;;;;;16.10;57.62;102058.47;5045868;28;20396;-65
2023/09/06 01:32:06;;;;;;;15.40;12.75;;;;;;;16.16;57.64;102061.69;5044824;28;20040;-66
2023/09/06 01:34:31;;;;;;;19.42;13.48;;;;;;;16.13;57.37;102058.31;5037535;28;20163;-65
2023/09/06 01:36:57;;;;;;;15.20;11.40;;;;;;;16.12;57.11;102054.00;5039859;28;20055;-64
2023/09/06 01:39:23;;;;;;;12.25;10.45;;;;;;;16.12;57.01;102054.00;5056599;28;20091;-65
2023/09/06 01:41:48;;;;;;;17.02;12.68;;;;;;;16.05;56.98;102053.41;5037445;28;20039;-65
2023/09/06 01:44:14;;;;;;;21.23;13.15;;;;;;;16.05;57.52;102052.56;5038785;28;20116;-65
2023/09/06 01:46:40;;;;;;;16.05;12.45;;;;;;;16.02;57.51;102052.66;5039905;28;20028;-64
2023/09/06 01:49:08;;;;;;;16.15;10.98;;;;;;;16.02;57.23;102050.03;5039720;28;20048;-66
2023/09/06 01:51:34;;;;;;;12.48;10.95;;;;;;;16.04;57.32;102048.19;5040684;28;20120;-65
2023/09/06 01:54:04;;;;;;;16.02;13.32;;;;;;;16.06;57.44;102046.34;5038463;28;20028;-64
2023/09/06 01:56:30;;;;;;;14.68;10.60;;;;;;;16.02;56.93;102044.75;5038968;28;20040;-63
2023/09/06 01:58:55;;;;;;;16.08;11.15;;;;;;;15.94;56.99;102045.09;5029015;28;20112;-64
2023/09/06 02:01:22;;;;;;;19.33;11.27;;;;;;;15.93;57.31;102046.88;5037600;28;20085;-63
2023/09/06 02:03:48;;;;;;;12.93;10.80;;;;;;;15.98;57.09;102047.50;5031651;28;20040;-64
2023/09/06 02:06:15;;;;;;;13.10;9.48;;;;;;;15.98;57.20;102047.50;5028560;28;20041;-64
2023/09/06 02:08:41;;;;;;;14.55;10.43;;;;;;;15.95;57.38;102052.94;5036119;28;20372;-63
2023/09/06 02:11:06;;;;;;;12.80;10.32;;;;;;;15.92;56.94;102052.19;5041230;28;20051;-63
2023/09/06 02:13:33;;;;;;;14.35;10.65;;;;;;;15.82;57.16;102058.78;5045153;28;20044;-63
2023/09/06 02:16:02;;;;;;;18.15;9.80;;;;;;;15.84;56.80;102055.19;5045489;28;20033;-64
2023/09/06 02:18:27;;;;;;;13.00;9.30;;;;;;;15.86;56.51;102058.59;5037063;28;20626;-64
2023/09/06 02:20:55;;;;;;;11.38;9.27;;;;;;;15.82;56.30;102062.31;5041305;28;20033;-66
2023/09/06 02:23:21;;;;;;;13.25;10.20;;;;;;;15.72;56.95;102055.69;5039094;28;20519;-65
2023/09/06 02:25:47;;;;;;;13.65;11.07;;;;;;;15.66;57.17;102061.22;5042921;28;20074;-63
2023/09/06 02:28:14;;;;;;;16.77;11.68;;;;;;;15.57;57.05;102058.09;5039491;28;20425;-64
2023/09/06 02:30:41;;;;;;;15.48;11.20;;;;;;;15.49;57.31;102060.19;5052592;28;20776;-63
2023/09/06 02:33:11;;;;;;;16.33;12.00;;;;;;;15.49;57.30;102064.59;5039059;28;20036;-63
2023/09/06 02:35:40;;;;;;;14.85;11.23;;;;;;;15.48;57.41;102060.22;5043807;28;20811;-64
2023/09/06 02:38:10;;;;;;;11.98;9.30;;;;;;;15.41;57.43;102064.06;5038446;28;20217;-65
2023/09/06 02:40:36;;;;;;;13.80;11.57;;;;;;;15.47;57.60;102072.56;5039910;28;20037;-63
2023/09/06 02:43:03;;;;;;;14.05;11.43;;;;;;;15.49;57.39;102070.72;5041389;28;20086;-63
2023/09/06 02:45:37;;;;;;;13.45;11.30;;;;;;;15.52;57.08;102078.47;5047332;28;20029;-64
2023/09/06 02:48:06;;;;;;;16.13;11.18;;;;;;;15.42;57.24;102074.53;5042294;28;20123;-64
2023/09/06 02:50:34;;;;;;;13.82;10.50;;;;;;;15.36;57.48;102080.06;5030830;28;20638;-63
2023/09/06 02:53:01;;;;;;;11.98;10.15;;;;;;;15.31;57.52;102072.34;5043488;28;20406;-63
2023/09/06 02:55:27;;;;;;;12.52;10.13;;;;;;;15.26;57.43;102078.69;5045844;28;20033;-64
2023/09/06 02:57:54;;;;;;;12.63;9.05;;;;;;;15.26;57.27;102074.31;5041230;28;20130;-64
2023/09/06 03:00:25;;;;;;;13.88;10.73;;;;;;;15.18;57.63;102073.72;5041337;28;20032;-64
2023/09/06 03:02:59;;;;;;;14.30;10.70;;;;;;;15.14;57.64;102075.63;5040781;28;20032;-64
2023/09/06 03:05:27;;;;;;;14.45;11.52;;;;;;;15.13;58.24;102068.66;5037831;28;20029;-65
2023/09/06 03:07:56;;;;;;;10.60;8.48;;;;;;;15.14;58.26;102067.72;5046271;28;20525;-64
2023/09/06 03:10:23;;;;;;;9.95;7.65;;;;;;;15.16;57.97;102072.94;5038393;28;21324;-65
2023/09/06 03:12:54;;;;;;;11.90;9.65;;;;;;;15.21;57.58;102076.22;5037764;28;20052;-65
2023/09/06 03:15:23;;;;;;;14.25;10.23;;;;;;;15.13;57.76;102066.00;5055399;28;20032;-65
2023/09/06 03:17:53;;;;;;;11.90;10.60;;;;;;;15.12;57.45;102066.06;5045615;28;20455;-66
2023/09/06 03:20:22;;;;;;;13.57;9.02;;;;;;;15.04;57.78;102066.38;5039723;28;20024;-66
2023/09/06 03:22:51;;;;;;;12.07;10.45;;;;;;;15.12;57.72;102066.06;5041800;28;20432;-66
2023/09/06 03:25:20;;;;;;;11.13;9.55;;;;;;;15.16;57.42;102076.41;5057002;28;20037;-66
2023/09/06 03:27:46;;;;;;;12.30;10.18;;;;;;;15.06;57.54;102077.72;5039071;28;20518;-66
2023/09/06 03:30:15;;;;;;;11.45;8.20;;;;;;;14.98;57.50;102079.78;5042299;28;20033;-66
2023/09/06 03:32:44;;;;;;;11.80;8.68;;;;;;;14.90;57.48;102076.59;5039742;28;20037;-68
2023/09/06 03:35:10;;;;;;;13.48;7.50;;;;;;;14.89;57.30;102075.75;5043935;28;20036;-66
2023/09/06 03:37:37;;;;;;;13.40;8.80;;;;;;;14.91;57.24;102080.97;5039503;28;20703;-65
2023/09/06 03:40:25;;;;;;;9.52;7.63;;;;;;;14.94;57.14;102091.34;5044972;28;20146;-65
2023/09/06 03:42:49;;;;;;;11.23;8.77;;;;;;;14.85;57.31;102089.09;5051094;28;20060;-66
2023/09/06 03:45:21;;;;;;;10.07;8.35;;;;;;;14.76;57.65;102099.03;5057567;28;20710;-65
2023/09/06 03:47:47;;;;;;;11.55;8.65;;;;;;;14.69;57.69;102100.19;5040340;28;20044;-65
2023/09/06 03:50:12;;;;;;;14.80;9.20;;;;;;;14.71;58.29;102094.88;5047651;28;20043;-65
2023/09/06 03:52:39;;;;;;;15.35;11.40;;;;;;;14.79;59.05;102095.47;5008890;28;20033;-63
2023/09/06 03:55:05;;;;;;;12.77;10.77;;;;;;;14.86;59.21;102088.19;5042114;28;20041;-63
2023/09/06 03:57:31;;;;;;;10.85;8.85;;;;;;;14.89;58.36;102090.69;5029195;28;20126;-64
2023/09/06 03:59:58;;;;;;;12.13;10.63;;;;;;;14.81;58.81;102093.59;5042047;28;20025;-66
2023/09/06 04:02:27;;;;;;;17.40;11.65;;;;;;;14.76;58.79;102100.81;5024593;28;20103;-66
2023/09/06 04:04:53;;;;;;;15.50;9.63;;;;;;;14.75;58.96;102093.84;5041433;28;20151;-65
2023/09/06 04:07:19;;;;;;;14.20;10.70;;;;;;;14.76;59.12;102091.16;5022742;28;20516;-66
2023/09/06 04:09:44;;;;;;;14.90;11.35;;;;;;;14.81;59.43;102092.75;5038467;28;20043;-66
2023/09/06 04:12:10;;;;;;;15.65;10.95;;;;;;;14.80;59.35;102091.03;5044915;28;20047;-65
2023/09/06 04:14:38;;;;;;;15.77;10.55;;;;;;;14.72;59.00;102093.94;5026026;28;20486;-66
2023/09/06 04:17:07;;;;;;;11.93;10.23;;;;;;;14.67;59.20;102088.88;5058290;28;20052;-68
2023/09/06 04:19:35;;;;;;;14.90;10.80;;;;;;;14.64;59.52;102085.50;5041486;28;20083;-65
2023/09/06 04:22:01;;;;;;;12.38;9.65;;;;;;;14.68;59.90;102087.09;5029874;28;20029;-66
2023/09/06 04:24:31;;;;;;;14.73;8.80;;;;;;;14.71;60.02;102081.72;5033594;28;20419;-67
2023/09/06 04:26:57;;;;;;;15.50;9.75;;;;;;;14.76;59.77;102085.88;5030458;28;20048;-64
2023/09/06 04:29:24;;;;;;;12.40;8.90;;;;;;;14.83;59.53;102085.66;5002256;28;20056;-64
2023/09/06 04:31:49;;;;;;;14.18;9.93;;;;;;;14.81;60.08;102092.75;5009080;28;20299;-66
2023/09/06 04:34:16;;;;;;;10.13;7.82;;;;;;;14.76;59.49;102091.16;5020045;28;20904;-64
2023/09/06 04:36:41;;;;;;;12.18;8.88;;;;;;;14.74;59.61;102095.59;5029158;28;20033;-65
2023/09/06 04:39:08;;;;;;;9.13;7.75;;;;;;;14.81;58.95;102092.75;5039528;28;20036;-66
2023/09/06 04:41:36;;;;;;;12.32;7.88;;;;;;;14.79;59.13;102094.56;5033911;28;20047;-67
2023/09/06 04:44:04;;;;;;;13.07;9.15;;;;;;;14.71;59.29;102087.84;5033299;28;20058;-67
2023/09/06 04:46:30;;;;;;;12.10;9.27;;;;;;;14.70;59.48;102091.41;5024920;28;20067;-65
2023/09/06 04:48:56;;;;;;;9.73;8.05;;;;;;;14.69;59.69;102084.41;5018329;28;20505;-66
2023/09/06 04:51:23;;;;;;;10.93;9.10;;;;;;;14.71;60.23;102087.84;5018462;28;20734;-64
2023/09/06 04:53:49;;;;;;;11.48;8.98;;;;;;;14.72;59.89;102094.84;5039515;28;20043;-65
2023/09/06 04:56:19;;;;;;;12.10;7.63;;;;;;;14.73;60.22;102101.81;5021412;28;20151;-64
2023/09/06 04:58:47;;;;;;;10.52;7.22;;;;;;;14.82;59.63;102097.09;5036665;28;20075;-64
2023/09/06 05:01:13;;;;;;;16.80;8.60;;;;;;;14.81;59.55;102093.59;5041326;28;20456;-65
2023/09/06 05:03:40;;;;;;;9.07;7.93;;;;;;;14.79;59.91;102089.31;5020594;28;20079;-66
2023/09/06 05:06:06;;;;;;;8.75;7.05;;;;;;;14.83;59.69;102088.28;5021990;28;20083;-64
2023/09/06 05:08:32;;;;;;;7.20;6.50;;;;;;;14.84;59.47;102092.66;5054637;28;20080;-64
2023/09/06 05:11:03;;;;;;;7.25;6.55;;;;;;;14.93;58.93;102087.03;5048849;28;20024;-65
2023/09/06 05:13:32;;;;;;;8.13;6.72;;;;;;;14.92;58.67;102098.44;5036118;28;20052;-64
2023/09/06 05:16:02;;;;;;;7.72;6.93;;;;;;;14.90;58.94;102093.28;5043353;28;20029;-64
2023/09/06 05:18:29;;;;;;;6.93;6.37;;;;;;;14.96;59.39;102097.41;5054835;28;20047;-64
2023/09/06 05:20:55;;;;;;;9.23;6.63;;;;;;;14.98;59.19;102100.84;5040563;28;20077;-63
2023/09/06 05:23:21;;;;;;;6.70;5.95;;;;;;;14.98;59.13;102095.59;5019929;28;20044;-64
2023/09/06 05:25:47;;;;;;;9.00;6.57;;;;;;;14.93;58.94;102100.19;5022650;28;20567;-66
2023/09/06 05:28:35;;;;;;;7.88;6.15;;;;;;;15.00;59.64;102099.03;5035940;28;20406;-63
2023/09/06 05:31:03;;;;;;;8.68;5.53;;;;;;;15.07;59.87;102103.13;5023139;28;20059;-67
2023/09/06 05:33:33;;;;;;;6.93;5.22;;;;;;;15.21;59.37;102106.97;5019179;28;20067;-65
2023/09/06 05:35:59;;;;;;;7.55;6.03;;;;;;;15.27;59.61;102110.25;5030409;28;20036;-65
2023/09/06 05:38:25;;;;;;;8.02;6.05;;;;;;;15.34;59.39;102105.59;5022270;28;20040;-67
2023/09/06 05:40:51;;;;;;;6.28;5.68;;;;;;;15.42;59.71;102103.50;5023841;28;20032;-65
2023/09/06 05:43:25;;;;;;;6.07;4.40;;;;;;;15.53;59.31;102109.19;5020152;28;20770;-65
2023/09/06 05:45:50;;;;;;;6.75;6.05;;;;;;;15.52;59.28;102118.00;5038815;28;20041;-65
2023/09/06 05:48:16;;;;;;;9.63;6.43;;;;;;;15.59;59.05;102118.59;5033617;28;20052;-65
2023/09/06 05:50:42;;;;;;;6.78;5.82;;;;;;;15.69;59.07;102119.09;5018579;28;20029;-65
2023/09/06 05:53:07;;;;;;;7.00;5.57;;;;;;;15.73;58.87;102118.91;5026377;28;20068;-65
2023/09/06 05:55:33;;;;;;;6.10;5.50;;;;;;;15.82;58.87;102125.56;5016750;28;20537;-65
2023/09/06 05:57:59;;;;;;;5.63;4.72;;;;;;;15.95;58.78;102121.50;5021887;28;20646;-64
2023/09/06 06:00:28;;;;;;;6.60;5.32;;;;;;;16.18;59.24;102127.56;5020393;28;20043;-65
2023/09/06 06:02:57;;;;;;;7.80;6.03;;;;;;;17.71;56.44;102123.94;5022568;28;20037;-65
2023/09/06 06:05:24;;;;;;;5.15;4.45;;;;;;;20.40;50.74;102135.47;5051318;28;20224;-64
2023/09/06 06:07:50;;;;;;;8.60;5.28;;;;;;;22.42;44.11;102123.84;5042572;28;20503;-65
2023/09/06 06:10:16;;;;;;;5.97;3.50;;;;;;;24.35;38.07;102118.38;5038357;28;20068;-65
2023/09/06 06:12:43;;;;;;;3.60;2.97;;;;;;;25.73;36.87;102117.69;5039040;28;20032;-65
2023/09/06 06:15:12;;;;;;;3.58;2.83;;;;;;;26.23;34.65;102115.19;5038312;28;20037;-67
2023/09/06 06:17:37;;;;;;;2.72;2.47;;;;;;;26.80;33.23;102122.69;5033479;28;20040;-66
2023/09/06 06:20:06;;;;;;;4.47;3.03;;;;;;;27.41;31.80;102122.47;5037626;28;20457;-65
2023/09/06 06:22:37;;;;;;;4.10;2.38;;;;;;;27.85;30.11;102114.78;5036966;28;20759;-68
2023/09/06 06:25:05;;;;;;;5.78;2.78;;;;;;;28.31;30.35;102125.66;5042639;28;20491;-64
2023/09/06 06:27:31;;;;;;;3.53;2.38;;;;;;;28.29;29.95;102123.09;5035437;28;20123;-67
2023/09/06 06:29:57;;;;;;;6.53;3.35;;;;;;;28.57;28.99;102125.78;5038353;28;20128;-67
2023/09/06 06:32:22;;;;;;;3.55;2.15;;;;;;;28.89;28.82;102124.47;5036004;28;20044;-65
2023/09/06 06:34:50;;;;;;;2.72;2.33;;;;;;;28.94;28.64;102132.91;5025195;28;20454;-67
2023/09/06 06:37:16;;;;;;;7.50;2.38;;;;;;;29.00;28.93;102132.31;5040659;28;20029;-65
2023/09/06 06:39:42;;;;;;;2.92;1.77;;;;;;;29.09;28.32;102135.94;5035371;28;20058;-66
2023/09/06 06:42:08;;;;;;;3.63;2.88;;;;;;;29.20;27.29;102133.03;5037850;28;20079;-66
2023/09/06 06:44:43;;;;;;;3.20;1.92;;;;;;;29.04;28.42;102135.56;5032824;28;20053;-66
2023/09/06 06:47:09;;;;;;;2.13;1.67;;;;;;;29.74;27.55;102146.44;5039011;28;20048;-66
2023/09/06 06:49:34;;;;;;;5.25;2.45;;;;;;;29.42;27.67;102134.41;5034578;28;20044;-65
2023/09/06 06:52:00;;;;;;;1.98;1.60;;;;;;;30.49;26.96;102141.28;5053121;28;20047;-68
2023/09/06 06:54:25;;;;;;;3.42;1.40;;;;;;;30.57;26.03;102140.47;5000315;28;20551;-65
2023/09/06 06:56:51;;;;;;;1.95;1.75;;;;;;;31.33;25.57;102146.66;5036556;28;20041;-67
2023/09/06 06:59:18;;;;;;;2.75;1.48;;;;;;;31.47;25.37;102140.59;5019565;28;20044;-65
2023/09/06 07:01:43;;;;;;;1.63;1.52;;;;;;;31.34;25.44;102151.06;5034080;28;20401;-66
2023/09/06 07:04:09;;;;;;;3.45;1.85;;;;;;;31.06;25.88;102154.09;5037895;28;20041;-66
2023/09/06 07:06:35;;;;;;;1.40;1.30;;;;;;;31.23;25.81;102152.25;5048283;28;20040;-66
2023/09/06 07:09:04;;;;;;;3.85;1.20;;;;;;;32.30;25.90;102152.06;5036204;28;20388;-67
2023/09/06 07:11:31;;;;;;;2.30;1.90;;;;;;;32.38;24.75;102152.91;5036650;28;20212;-67
2023/09/06 07:13:56;;;;;;;3.03;1.52;;;;;;;32.47;23.97;102158.28;5037823;28;20051;-67
2023/09/06 07:16:22;;;;;;;2.10;1.58;;;;;;;31.03;26.08;102153.59;5037858;28;20032;-65
2023/09/06 07:18:48;;;;;;;3.03;1.15;;;;;;;32.20;24.59;102152.28;5032971;28;20075;-64
2023/09/06 07:21:15;;;;;;;5.60;1.90;;;;;;;32.57;23.82;102159.75;5039687;28;20079;-65
2023/09/06 07:23:40;;;;;;;1.88;1.38;;;;;;;32.54;23.63;102153.84;5034400;28;20052;-65
2023/09/06 07:26:06;;;;;;;2.60;1.77;;;;;;;32.43;24.11;102158.66;5041406;28;20302;-65
2023/09/06 07:28:45;;;;;;;3.40;1.63;;;;;;;31.02;26.73;102163.53;5036074;28;20071;-66
2023/09/06 07:31:11;;;;;;;2.90;1.35;;;;;;;31.10;25.89;102166.25;5044353;28;20039;-65
2023/09/06 07:33:38;;;;;;;2.35;1.63;;;;;;;31.31;26.12;102164.91;5037462;28;20028;-65
2023/09/06 07:36:04;;;;;;;3.42;2.22;;;;;;;31.28;25.51;102168.78;5041434;28;20032;-65
2023/09/06 07:38:31;;;;;;;4.50;1.20;;;;;;;31.03;25.71;102165.22;5034973;28;20071;-65
2023/09/06 07:41:04;;;;;;;1.92;1.70;;;;;;;32.05;24.45;102164.84;5036840;28;20029;-65
2023/09/06 07:43:32;;;;;;;4.07;1.83;;;;;;;31.85;25.05;102164.34;5038443;28;20043;-65
2023/09/06 07:45:59;;;;;;;2.63;1.50;;;;;;;32.49;24.09;102162.50;5040495;28;20110;-65
2023/09/06 07:48:26;;;;;;;2.60;1.25;;;;;;;33.14;23.13;102166.66;5038342;28;20162;-65
2023/09/06 07:50:52;;;;;;;5.28;2.45;;;;;;;33.82;22.73;102164.91;5039732;28;20032;-65
2023/09/06 07:53:17;;;;;;;1.85;1.58;;;;;;;33.45;23.31;102176.59;5031643;28;20497;-65
2023/09/06 07:55:45;;;;;;;1.55;1.17;;;;;;;33.10;24.13;102169.91;5019307;28;20036;-65
2023/09/06 07:58:11;;;;;;;2.08;1.05;;;;;;;32.87;23.76;102169.91;5020135;28;20072;-64
2023/09/06 08:00:37;;;;;;;3.88;1.30;;;;;;;33.39;23.49;102174.59;5017043;28;20464;-65
2023/09/06 08:03:03;;;;;;;1.75;1.33;;;;;;;32.20;24.33;102182.03;5020162;28;20045;-66
2023/09/06 08:05:31;;;;;;;2.00;1.05;;;;;;;32.36;24.87;102173.00;5029605;28;20048;-66
2023/09/06 08:07:56;;;;;;;2.40;2.20;;;;;;;32.37;24.80;102183.66;5026314;28;20113;-66
2023/09/06 08:10:21;;;;;;;2.85;1.30;;;;;;;32.35;25.20;102166.75;5028171;28;20036;-66
2023/09/06 08:12:47;;;;;;;3.22;1.40;;;;;;;32.89;23.76;102184.13;5039916;28;20045;-66
2023/09/06 08:15:13;;;;;;;4.00;1.35;;;;;;;33.25;23.66;102178.94;5046546;28;20036;-65
2023/09/06 08:17:39;;;;;;;2.83;1.05;;;;;;;33.16;22.97;102186.28;5040035;28;20044;-65
2023/09/06 08:20:08;;;;;;;1.42;0.85;;;;;;;33.75;23.63;102187.50;5042113;28;20521;-65
2023/09/06 08:22:35;;;;;;;4.18;1.00;;;;;;;34.19;23.77;102187.53;5039232;28;20075;-66
2023/09/06 08:25:02;;;;;;;6.75;1.10;;;;;;;33.51;24.08;102184.00;5041557;28;20038;-65
2023/09/06 08:27:28;;;;;;;3.83;1.88;;;;;;;32.84;24.32;102182.78;5038423;28;20219;-66
2023/09/06 08:29:53;;;;;;;3.30;1.27;;;;;;;33.38;23.46;102186.47;5036549;28;20484;-66
2023/09/06 08:32:19;;;;;;;2.05;1.05;;;;;;;33.79;24.07;102178.81;5035533;28;20035;-65
2023/09/06 08:34:45;;;;;;;4.03;1.13;;;;;;;33.16;23.50;102180.88;5037311;28;20028;-65
2023/09/06 08:37:11;;;;;;;2.10;1.02;;;;;;;33.34;24.08;102187.88;5038817;28;20032;-67
2023/09/06 08:39:36;;;;;;;1.50;0.90;;;;;;;32.76;23.94;102187.38;5018495;28;20074;-67
2023/09/06 08:42:04;;;;;;;2.13;1.20;;;;;;;32.39;24.82;102184.34;5037781;28;20111;-68
2023/09/06 08:44:32;;;;;;;5.25;1.20;;;;;;;32.35;25.94;102182.16;5038169;28;20526;-68
2023/09/06 08:47:01;;;;;;;3.03;1.52;;;;;;;31.75;26.72;102178.06;5036332;28;20037;-67
2023/09/06 08:49:27;;;;;;;5.28;1.55;;;;;;;31.38;27.27;102182.09;5026387;28;20044;-67
2023/09/06 08:51:55;;;;;;;2.00;1.40;;;;;;;31.66;27.00;102176.41;5035639;28;20988;-67
2023/09/06 08:54:23;;;;;;;1.90;1.08;;;;;;;31.71;27.07;102174.84;5038345;28;20064;-68
2023/09/06 08:56:50;;;;;;;3.75;1.77;;;;;;;30.97;27.59;102176.66;5035280;28;20124;-68
2023/09/06 08:59:18;;;;;;;3.67;1.90;;;;;;;29.78;29.54;102180.97;5035688;28;20037;-68
2023/09/06 09:01:43;;;;;;;1.73;1.27;;;;;;;28.57;30.91;102176.91;5019865;28;20127;-67
2023/09/06 09:04:09;;;;;;;3.55;1.30;;;;;;;28.37;32.07;102175.28;5036164;28;20049;-68
2023/09/06 09:06:34;;;;;;;2.45;1.30;;;;;;;28.32;32.12;102179.28;5037024;28;20066;-68
2023/09/06 09:09:19;;;;;;;2.22;1.10;;;;;;;28.79;31.51;102172.09;5020697;28;20685;-66
2023/09/06 09:11:52;;;;;;;1.45;1.30;;;;;;;28.40;32.29;102180.38;5035221;28;20086;-68
2023/09/06 09:14:23;;;;;;;2.03;1.40;;;;;;;28.42;31.92;102186.44;5036226;28;20076;-67
2023/09/06 09:16:56;;;;;;;2.33;1.33;;;;;;;28.25;32.31;102183.53;5026748;28;20071;-67
2023/09/06 09:19:22;;;;;;;1.77;1.13;;;;;;;28.19;31.96;102178.75;5038495;28;20182;-67
2023/09/06 09:21:52;;;;;;;3.67;1.10;;;;;;;28.86;31.71;102178.56;5020330;28;20123;-67
2023/09/06 09:24:29;;;;;;;3.58;1.55;;;;;;;28.98;31.89;102177.38;5020058;28;20052;-67
2023/09/06 09:26:56;;;;;;;3.08;0.73;;;;;;;28.72;31.32;102179.94;5036886;28;20040;-67
2023/09/06 09:29:23;;;;;;;2.15;0.73;;;;;;;28.68;30.22;102186.59;5037936;28;20420;-68
2023/09/06 09:31:48;;;;;;;3.97;0.68;;;;;;;28.42;31.84;102178.38;5025152;28;20036;-67
2023/09/06 09:34:14;;;;;;;4.38;1.20;;;;;;;28.51;31.70;102178.31;5038765;28;20064;-68
2023/09/06 09:36:40;;;;;;;2.75;0.52;;;;;;;28.83;30.73;102181.56;5036836;28;20032;-68
2023/09/06 09:39:13;;;;;;;1.40;0.70;;;;;;;28.58;31.18;102178.56;5036204;28;20163;-65
2023/09/06 09:41:41;;;;;;;0.57;0.40;;;;;;;29.06;31.07;102181.97;5032538;28;20033;-65
2023/09/06 09:44:19;;;;;;;1.40;0.50;;;;;;;29.13;29.71;102181.25;5037185;28;20044;-68
2023/09/06 09:46:45;;;;;;;1.38;0.55;;;;;;;29.31;29.79;102180.41;5032010;28;20037;-68
2023/09/06 09:49:12;;;;;;;1.00;0.60;;;;;;;28.93;29.50;102179.69;5035181;28;20503;-68
2023/09/06 09:51:40;;;;;;;2.00;0.75;;;;;;;28.60;31.03;102175.75;5031861;28;20650;-67
2023/09/06 09:54:08;;;;;;;1.35;0.50;;;;;;;28.88;29.79;102180.13;5038402;28;20626;-68
2023/09/06 09:56:34;;;;;;;1.92;0.65;;;;;;;29.31;30.00;102177.72;5035009;28;20585;-67
2023/09/06 09:59:04;;;;;;;1.20;0.43;;;;;;;29.25;29.56;102178.34;5038065;28;20273;-68
2023/09/06 10:01:33;;;;;;;0.95;0.55;;;;;;;29.02;29.91;102183.31;5034003;28;20086;-67
2023/09/06 10:04:03;;;;;;;1.20;0.60;;;;;;;29.42;29.78;102177.47;5025566;28;20452;-66
2023/09/06 10:06:31;;;;;;;2.75;0.60;;;;;;;29.36;30.65;102175.41;5039061;28;20032;-65
2023/09/06 10:09:01;;;;;;;1.27;0.50;;;;;;;29.28;31.38;102180.69;5019507;28;20843;-67
2023/09/06 10:11:29;;;;;;;2.83;0.40;;;;;;;29.29;30.00;102174.34;5018594;28;20441;-68
2023/09/06 10:13:55;;;;;;;3.30;0.80;;;;;;;29.18;30.30;102177.25;5034810;28;20283;-67
2023/09/06 10:16:22;;;;;;;1.48;0.60;;;;;;;29.26;29.51;102163.84;5033884;28;20036;-67
2023/09/06 10:18:48;;;;;;;1.88;0.60;;;;;;;29.23;29.38;102174.94;5018138;28;20051;-66
2023/09/06 10:21:15;;;;;;;3.15;1.20;;;;;;;29.58;29.52;102169.53;5035798;28;20024;-67
2023/09/06 10:23:46;;;;;;;1.30;0.60;;;;;;;29.60;30.62;102165.88;5035872;28;20132;-66
2023/09/06 10:26:23;;;;;;;2.00;0.68;;;;;;;30.22;30.04;102158.53;5036147;28;20120;-65
2023/09/06 10:28:58;;;;;;;1.33;0.50;;;;;;;30.44;29.56;102161.63;5023048;28;20061;-66
2023/09/06 10:31:35;;;;;;;1.85;0.70;;;;;;;30.09;29.17;102166.22;5034051;28;20033;-66
2023/09/06 10:34:00;;;;;;;2.03;0.50;;;;;;;30.01;28.92;102158.03;5006356;28;20430;-66
2023/09/06 10:36:29;;;;;;;1.95;0.50;;;;;;;29.97;28.94;102161.06;5036239;28;20048;-66
2023/09/06 10:38:55;;;;;;;2.80;0.55;;;;;;;29.78;29.17;102161.28;5016026;28;20044;-66
2023/09/06 10:41:22;;;;;;;0.70;0.50;;;;;;;29.71;29.40;102161.06;5017296;28;20037;-66
2023/09/06 10:43:58;;;;;;;2.10;0.65;;;;;;;30.01;29.08;102163.44;5035848;28;20132;-66
2023/09/06 10:46:29;;;;;;;1.80;0.60;;;;;;;29.77;28.36;102162.25;5034671;28;20502;-66
2023/09/06 10:49:19;;;;;;;1.05;0.63;;;;;;;29.81;28.49;102163.66;5033061;28;20119;-66
2023/09/06 10:52:08;;;;;;;2.42;0.60;;;;;;;29.60;29.56;102164.03;5037944;28;20028;-66
2023/09/06 10:54:44;;;;;;;3.33;0.50;;;;;;;29.99;28.46;102166.28;5031887;28;20495;-66
2023/09/06 10:57:14;;;;;;;1.05;0.38;;;;;;;30.07;28.80;102152.84;5034345;28;20414;-65
2023/09/06 10:59:43;;;;;;;5.07;0.70;;;;;;;30.77;27.60;102144.56;5034120;28;20565;-66
2023/09/06 11:02:09;;;;;;;1.50;0.88;;;;;;;30.36;28.74;102154.38;5018692;28;20051;-66
2023/09/06 11:04:36;;;;;;;4.68;0.60;;;;;;;30.57;29.43;102153.97;5034460;28;20056;-66
2023/09/06 11:07:10;;;;;;;3.15;0.40;;;;;;;30.60;28.37;102156.34;5038842;28;20033;-65
2023/09/06 11:09:43;;;;;;;3.22;0.40;;;;;;;30.61;28.53;102144.53;5035514;28;20040;-67
2023/09/06 11:12:13;;;;;;;2.35;0.63;;;;;;;30.41;28.49;102154.72;5039622;28;20040;-67
2023/09/06 11:14:47;;;;;;;1.17;0.40;;;;;;;30.14;28.35;102147.69;5024070;28;20048;-67
2023/09/06 11:17:20;;;;;;;2.78;0.50;;;;;;;29.81;29.25;102147.47;5039341;28;20036;-67
2023/09/06 11:19:45;;;;;;;0.80;0.43;;;;;;;29.75;28.26;102148.09;5038614;28;20036;-66
2023/09/06 11:22:11;;;;;;;0.80;0.47;;;;;;;29.99;28.71;102150.94;5036295;28;20064;-67